• Join FlightAware (Why Join?)
  • Login
  • US Flag GB Flag 
08:28 EDT


 

Airport Tracker/Info


-or-


 

Live Flight TrackerFlight Track Log ✈ AAL1459 ✈ 03-Nov-2013 ✈ KORD - KRNO

Flight Track Log - Related Links

Times and Time Zones

All times are in EST time to prevent confusion due to time zone crossing. See the AAL1459 flight status page for this flight to view local times or setup timezone preferences in your user account.

Time Position Orientation Groundspeed Altitude Reporting Facility
EST Latitude Longitude Course Direction KTS MPH feet Rate Location/Type
18:56 41.9500 -87.9333 270° West 191 220 2,400  Level Chicago TRACON
18:57 41.9667 -88.0167 285° West 249 287 3,700 2,160 Climbing Chicago TRACON
18:58 42.0065 -88.3129 282° West  Level Estimated
18:58 42.0017 -88.1500 289° West 259 298 7,800  Level Chicago Center
18:59 42.0490 -88.4361 295° West  Level FlightAware Approximate
18:59 42.0261 -88.2497 288° West 276 318 10,500  Level Chicago Center
19:00 42.0567 -88.5717 270° West  Level Estimated
19:00 42.0547 -88.3614 289° West 314 361 12,000  Level Chicago Center
19:01 42.0642 -88.7073 270° West  Level Estimated
19:01 42.0894 -88.5067 288° West 341 392 15,300  Level Chicago Center
19:02 42.1197 -88.6286 289° West 346 398 17,800 2,220 Climbing Chicago Center
19:04 42.1514 -88.7597 288° West 364 419 20,000 2,220 Climbing Chicago Center
19:05 42.1600 -88.9058 275° West 384 442 22,400 1,980 Climbing Chicago Center
19:06 42.1569 -89.0494 268° West 382 440 24,200 2,220 Climbing Chicago Center
19:07 42.1533 -89.1928 268° West 384 442 27,100 2,160 Climbing Chicago Center
19:08 42.1486 -89.3319 267° West 374 430 28,700 1,560 Climbing Chicago Center
19:09 42.1447 -89.4986 268° West 371 427 30,400 1,440 Climbing Chicago Center
19:10 42.1411 -89.6411 268° West 379 436 31,700 1,200 Climbing Chicago Center
19:11 42.1372 -89.7869 268° West 387 445 33,000 1,320 Climbing Chicago Center
19:12 42.1319 -89.9294 267° West 380 437 34,500 1,200 Climbing Chicago Center
19:13 42.1422 -90.0672 276° West 382 440 35,600 1,200 Climbing Chicago Center
19:14 42.1589 -90.2078 279° West 381 438 37,000 1,080 Climbing Chicago Center
19:15 42.1792 -90.3692 280° West 371 427 37,900 480 Climbing Chicago Center
19:16 42.1972 -90.5014 280° West 365 420 38,000  Climbing Chicago Center
19:17 42.2139 -90.6389 279° West 371 427 38,000  Level Chicago Center
19:18 42.2308 -90.7747 280° West 370 426 38,000  Level Chicago Center
19:19 42.2483 -90.9103 280° West 370 426 38,000  Level Chicago Center
19:20 42.2633 -91.0478 278° West 373 429 38,000  Level Chicago Center
19:21 42.2833 -91.2094 280° West 368 423 38,000  Level Chicago Center
19:22 42.3008 -91.3447 280° West 367 422 38,000  Level Chicago Center
19:23 42.3153 -91.4819 278° West 368 423 38,000  Level Chicago Center
19:24 42.3314 -91.6158 279° West 365 420 38,000  Level Chicago Center
19:25 42.3475 -91.7514 279° West 365 420 38,000  Level Chicago Center
19:26 42.3622 -91.8864 278° West 363 418 38,000  Level Chicago Center
19:27 42.3806 -92.0483 279° West 364 419 38,000  Level Chicago Center
19:28 42.3956 -92.1847 279° West 367 422 38,000  Level Chicago Center
19:29 42.4117 -92.3208 279° West 368 423 38,000  Level Chicago Center
19:30 42.4256 -92.4594 278° West 372 428 38,000  Level Chicago Center
19:31 42.4406 -92.5969 278° West 373 429 38,000  Level Chicago Center
19:32 42.4589 -92.7628 279° West 374 430 38,000  Level Chicago Center
19:34 42.4733 -92.9019 278° West 374 430 38,000  Level Chicago Center
19:35 42.4878 -93.0403 278° West 374 430 38,000  Level Chicago Center
19:35 42.5000 -93.1536 278° West 378 435 38,000  Level Minneapolis Center
19:36 42.5131 -93.2911 277° West 374 430 38,000  Level Minneapolis Center
19:37 42.5269 -93.4272 278° West 370 426 38,000  Level Minneapolis Center
19:38 42.5442 -93.5914 278° West 368 423 38,000  Level Minneapolis Center
19:39 42.5572 -93.7297 277° West 372 428 38,000  Level Minneapolis Center
19:41 42.5719 -93.8694 278° West 376 433 38,000  Level Minneapolis Center
19:42 42.5844 -94.0089 277° West 377 434 38,000  Level Minneapolis Center
19:43 42.5983 -94.1489 278° West 377 434 38,000  Level Minneapolis Center
19:44 42.6119 -94.2892 278° West 380 437 38,000  Level Minneapolis Center
19:45 42.6767 -94.4461 299° West 399 459 38,000  Level Minneapolis Center
19:46 42.7322 -94.5761 300° West 400 460 38,000  Level Minneapolis Center
19:47 42.7911 -94.7119 301° West 393 452 38,000  Level Minneapolis Center
19:48 42.8475 -94.8417 301° West 396 456 38,000  Level Minneapolis Center
19:49 42.9031 -94.9731 300° West 401 461 38,000  Level Minneapolis Center
19:50 42.9594 -95.1050 300° West 403 464 38,000  Level Minneapolis Center
19:51 43.0158 -95.2375 300° West 403 464 38,000  Level Minneapolis Center
19:52 43.0717 -95.3722 300° West 407 468 38,000  Level Minneapolis Center
19:53 43.1392 -95.5333 300° West 408 470 38,000  Level Minneapolis Center
19:54 43.1956 -95.6672 300° West 406 467 38,000  Level Minneapolis Center
19:55 43.2514 -95.8036 299° West 408 470 38,000  Level Minneapolis Center
19:56 43.3081 -95.9383 300° West 408 470 38,000  Level Minneapolis Center
19:57 43.3639 -96.0756 299° West 410 472 38,000  Level Minneapolis Center
19:58 43.4189 -96.2106 299° West 407 468 38,000  Level Minneapolis Center
19:59 43.4747 -96.3469 299° West 407 468 38,000  Level Minneapolis Center
20:00 43.5289 -96.4828 299° West 405 466 38,000  Level Minneapolis Center
20:01 43.5836 -96.6181 299° West 403 464 38,000  Level Minneapolis Center
20:02 43.6475 -96.7817 298° West 403 464 38,000  Level Minneapolis Center
20:03 43.6608 -96.9269 277° West 379 436 38,000  Level Minneapolis Center
20:04 43.6717 -97.0719 276° West 379 436 38,000  Level Minneapolis Center
20:05 43.6836 -97.2175 277° West 382 440 38,000  Level Minneapolis Center
20:06 43.6933 -97.3631 275° West 381 438 38,000  Level Minneapolis Center
20:07 43.7050 -97.5083 276° West 380 437 38,000  Level Minneapolis Center
20:08 43.7156 -97.6528 276° West 379 436 38,000  Level Minneapolis Center
20:09 43.7256 -97.7983 275° West 381 438 38,000  Level Minneapolis Center
20:10 43.7361 -97.9439 276° West 382 440 38,000  Level Minneapolis Center
20:11 43.7478 -98.1200 275° West 383 441 38,000  Level Minneapolis Center
20:12 43.7586 -98.2672 276° West 386 444 38,000  Level Minneapolis Center
20:13 43.7681 -98.4144 275° West 385 443 38,000  Level Minneapolis Center
20:14 43.7778 -98.5614 275° West 384 442 38,000  Level Minneapolis Center
20:15 43.7864 -98.6997 275° West 385 443 38,000  Level Minneapolis Center
20:16 43.7978 -98.8769 275° West 386 444 38,000  Level Minneapolis Center
20:17 43.8064 -99.0250 275° West 386 444 38,000  Level Minneapolis Center
20:18 43.8156 -99.1731 275° West 386 444 38,000  Level Minneapolis Center
20:20 43.8242 -99.3219 275° West 386 444 38,000  Level Minneapolis Center
20:21 43.8319 -99.4708 274° West 387 445 38,000  Level Minneapolis Center
20:22 43.8397 -99.6192 274° West 386 444 38,000  Level Minneapolis Center
20:23 43.8483 -99.7678 275° West 386 444 38,000  Level Minneapolis Center
20:24 43.8564 -99.9158 274° West 385 443 38,000  Level Minneapolis Center
20:25 43.8642 -100.0644 274° West 386 444 38,000  Level Minneapolis Center
20:26 43.8722 -100.2467 274° West 390 449 38,000  Level Minneapolis Center
20:27 43.8792 -100.3983 274° West 392 451 38,000  Level Minneapolis Center
20:28 43.8878 -100.5508 275° West 395 455 38,000  Level Minneapolis Center
20:29 43.8947 -100.7053 274° West 399 459 38,000  Level Minneapolis Center
20:30 43.9008 -100.8603 273° West 400 460 38,000  Level Minneapolis Center
20:31 43.9081 -101.0156 274° West 402 463 38,000  Level Minneapolis Center
20:32 43.9147 -101.1711 273° West 404 465 38,000  Level Minneapolis Center
20:34 43.9253 -101.4478 273° West 400 460 38,000  Level Denver Center
20:35 43.9317 -101.6019 273° West 401 461 38,000  Level Denver Center
20:36 43.9369 -101.7844 272° West 397 457 38,000  Level Denver Center
20:37 43.9389 -101.9333 271° West 392 451 38,000  Level Denver Center
20:38 43.9431 -102.0847 272° West 391 450 38,000  Level Denver Center
20:39 43.9492 -102.2369 273° West 392 451 38,000  Level Denver Center
20:40 43.9542 -102.3897 273° West 394 453 38,000  Level Denver Center
20:41 43.9586 -102.5417 272° West 395 455 38,000  Level Denver Center
20:42 43.9625 -102.6950 272° West 396 456 38,000  Level Denver Center
20:43 43.9683 -102.8822 273° West 400 460 38,000  Level Denver Center
20:44 43.9725 -103.0378 272° West 402 463 38,000  Level Denver Center
20:45 43.9758 -103.1919 272° West 402 463 38,000  Level Denver Center
20:46 43.9789 -103.3467 272° West 401 461 38,000  Level Denver Center
20:47 43.9828 -103.5039 272° West 405 466 38,000  Level Denver Center
20:48 43.9869 -103.6611 272° West 407 468 38,000  Level Denver Center
20:49 43.9886 -103.8219 271° West 414 476 38,000  Level Denver Center
20:50 43.9908 -103.9925 271° West 417 480 38,000  Level Denver Center
20:51 43.9928 -104.1525 271° West 416 479 38,000  Level Denver Center
20:52 43.9950 -104.3125 271° West 416 479 38,000  Level Denver Center
20:53 43.9967 -104.5044 271° West 415 478 38,000  Level Denver Center
20:54 43.9978 -104.6642 271° West 415 478 38,000  Level Denver Center
20:55 44.0003 -104.8225 271° West 414 476 38,000  Level Denver Center
20:56 44.0008 -104.9781 270° West 409 471 38,000  Level Denver Center
20:57 44.0014 -105.1336 270° West 406 467 38,000  Level Denver Center
20:58 44.0022 -105.2908 270° West 406 467 38,000  Level Denver Center
20:59 44.0033 -105.4811 271° West 409 471 38,000  Level Denver Center
21:00 44.0025 -105.6408 270° West 412 474 38,000  Level Denver Center
21:01 44.0031 -105.8031 270° West 415 478 38,000  Level Denver Center
21:03 44.0019 -105.9658 270° West 419 482 38,000  Level Denver Center
21:04 44.0011 -106.1294 270° West 422 486 38,000  Level Denver Center
21:05 43.9992 -106.2933 269° West 424 488 38,000  Level Denver Center
21:05 43.9983 -106.4242 270° West 425 489 38,000  Level Salt Lake Center
21:06 43.9594 -106.5764 251° West 416 479 38,000  Level Salt Lake Center
21:07 43.9167 -106.7269 249° West 418 481 38,000  Level Salt Lake Center
21:08 43.8739 -106.8778 249° West 421 484 38,000  Level Salt Lake Center
21:09 43.8303 -107.0331 249° West 429 494 38,000  Level Salt Lake Center
21:10 43.7864 -107.1842 248° West 426 490 38,000  Level Salt Lake Center
21:11 43.7433 -107.3353 249° West 423 487 38,000  Level Salt Lake Center
21:12 43.6931 -107.5150 249° West 419 482 38,000  Level Salt Lake Center
21:13 43.6492 -107.6658 248° West 422 486 38,000  Level Salt Lake Center
21:14 43.6056 -107.8164 248° West 423 487 38,000  Level Salt Lake Center
21:16 43.5619 -107.9642 248° West 420 483 38,000  Level Salt Lake Center
21:17 43.5181 -108.1133 248° West 419 482 38,000  Level Salt Lake Center
21:18 43.4747 -108.2619 248° West 418 481 38,000  Level Salt Lake Center
21:19 43.4322 -108.4094 248° West 417 480 38,000  Level Salt Lake Center
21:20 43.3925 -108.5558 250° West 412 474 38,000  Level Salt Lake Center
21:21 43.3514 -108.7008 249° West 410 472 38,000  Level Salt Lake Center
21:22 43.3094 -108.8428 248° West 404 465 38,000  Level Salt Lake Center
21:23 43.2675 -108.9878 248° West 408 470 38,000  Level Salt Lake Center
21:24 43.2172 -109.1633 249° West 412 474 38,000  Level Salt Lake Center
21:25 43.1753 -109.3072 248° West 409 471 38,000  Level Salt Lake Center
21:26 43.1339 -109.4486 248° West 403 464 38,000  Level Salt Lake Center
21:27 43.0925 -109.5900 248° West 402 463 38,000  Level Salt Lake Center
21:28 43.0511 -109.7300 248° West 398 458 38,000  Level Salt Lake Center
21:29 43.0111 -109.8647 248° West 403 464 38,000  Level Salt Lake Center
21:30 42.9631 -110.0253 248° West 407 468 38,000  Level Salt Lake Center
21:31 42.9219 -110.1608 248° West 405 466 38,000  Level Salt Lake Center
21:32 42.8742 -110.3206 248° West 407 468 38,000  Level Salt Lake Center
21:33 42.8322 -110.4594 248° West 411 473 38,000  Level Salt Lake Center
21:34 42.7894 -110.5964 247° West 411 473 38,000  Level Salt Lake Center
21:35 42.7411 -110.7561 248° West 410 472 38,000  Level Salt Lake Center
21:36 42.6947 -110.9036 247° West 408 470 38,000  Level Salt Lake Center
21:37 42.6558 -111.0258 247° West 411 473 38,000  Level Salt Lake Center
21:38 42.6014 -111.2011 247° West 421 484 38,000  Level Salt Lake Center
21:39 42.5547 -111.3497 247° West 428 493 38,000  Level Salt Lake Center
21:40 42.5083 -111.4944 247° West 422 486 38,000  Level Salt Lake Center
21:41 42.4622 -111.6411 247° West 425 489 38,000  Level Salt Lake Center
21:42 42.4158 -111.7872 247° West 426 490 38,000  Level Salt Lake Center
21:43 42.3686 -111.9322 246° West 424 488 38,000  Level Salt Lake Center
21:44 42.3203 -112.0783 246° West 426 490 38,000  Level Salt Lake Center
21:45 42.2733 -112.2236 246° West 425 489 38,000  Level Salt Lake Center
21:46 42.2167 -112.3981 246° West 426 490 38,000  Level Salt Lake Center
21:47 42.1686 -112.5403 246° West 421 484 38,000  Level Salt Lake Center
21:48 42.1197 -112.6828 245° Southwest 422 486 38,000  Level Salt Lake Center
21:49 42.0717 -112.8267 246° West 423 487 38,000  Level Salt Lake Center
21:50 42.0233 -112.9683 245° Southwest 420 483 38,000  Level Salt Lake Center
21:51 41.9753 -113.1089 245° Southwest 416 479 38,000  Level Salt Lake Center
21:52 41.9275 -113.2461 245° Southwest 409 471 38,000  Level Salt Lake Center
21:53 41.8797 -113.3831 245° Southwest 408 470 38,000  Level Salt Lake Center
21:54 41.8322 -113.5189 245° Southwest 405 466 38,000  Level Salt Lake Center
21:55 41.7764 -113.6794 245° Southwest 399 459 38,000  Level Salt Lake Center
21:56 41.7289 -113.8114 244° Southwest 396 456 38,000  Level Salt Lake Center
21:57 41.6819 -113.9447 245° Southwest 397 457 38,000  Level Salt Lake Center
21:58 41.6336 -114.0783 244° Southwest 399 459 38,000  Level Salt Lake Center
21:59 41.5869 -114.2117 245° Southwest 398 458 38,000  Level Salt Lake Center
22:00 41.5397 -114.3436 244° Southwest 396 456 38,000  Level Salt Lake Center
22:01 41.4917 -114.4750 244° Southwest 396 456 38,000  Level Salt Lake Center
22:03 41.4442 -114.6067 244° Southwest 396 456 38,000  Level Salt Lake Center
22:04 41.3878 -114.7639 244° Southwest 394 453 38,000  Level Salt Lake Center
22:05 41.3367 -114.8992 243° Southwest 396 456 38,000  Level Salt Lake Center
22:06 41.2922 -115.0261 245° Southwest 396 456 38,000  Level Salt Lake Center
22:07 41.2456 -115.1494 243° Southwest 391 450 38,000  Level Salt Lake Center
22:08 41.1919 -115.2939 244° Southwest 391 450 38,000  Level Salt Lake Center
22:09 41.1450 -115.4181 243° Southwest 393 452 38,000  Level Salt Lake Center
22:10 41.0906 -115.5661 244° Southwest 398 458 38,000  Level Salt Lake Center
22:11 41.0436 -115.6906 243° Southwest 397 457 38,000  Level Salt Lake Center
22:12 40.9961 -115.8156 243° Southwest 397 457 38,000  Level Salt Lake Center
22:13 40.9394 -115.9644 243° Southwest 403 464 38,000  Level Salt Lake Center
22:14 40.8908 -116.0939 244° Southwest 408 470 38,000  Level Salt Lake Center
22:15 40.8331 -116.2431 243° Southwest 410 472 38,000  Level Salt Lake Center
22:16 40.7836 -116.3714 243° Southwest 411 473 38,000  Level Salt Lake Center
22:17 40.7336 -116.4992 243° Southwest 410 472 38,000  Level Salt Lake Center
22:18 40.6769 -116.6472 243° Southwest 408 470 38,000  Level Salt Lake Center
22:19 40.6281 -116.7731 243° Southwest 406 467 38,000  Level Salt Lake Center
22:20 40.5703 -116.9178 242° Southwest 405 466 38,000  Level Salt Lake Center
22:21 40.5361 -117.0486 251° West 402 463 38,000  Level Salt Lake Center
22:22 40.4822 -117.1944 244° Southwest 404 465 38,000  Level Salt Lake Center
22:23 40.4242 -117.3153 238° Southwest 409 471 38,000  Level Salt Lake Center
22:24 40.3569 -117.4550 238° Southwest 407 468 38,000  Level Salt Lake Center
22:25 40.2986 -117.5742 237° Southwest 406 467 38,000 -60 Level Salt Lake Center
22:26 40.2400 -117.6944 237° Southwest 409 471 37,900 -540 Descending Salt Lake Center
22:27 40.1717 -117.8350 238° Southwest 410 472 36,900 -1,200 Descending Salt Lake Center
22:28 40.1117 -117.9583 238° Southwest 419 482 35,500 -1,620 Descending Salt Lake Center
22:29 40.0533 -118.0808 238° Southwest 394 453 33,600 -1,860 Descending Oakland Center
22:30 39.9944 -118.2008 237° Southwest 393 452 31,700 -2,040 Descending Oakland Center
22:32 39.9084 -118.3520 233° Southwest  Level FlightAware Approximate
22:33 39.8069 -118.5744 234° Southwest 384 442 25,500  Level Salt Lake Center
22:34 39.7500 -118.6875 237° Southwest 378 435 23,900 -1,740 Descending Salt Lake Center
22:36 39.6592 -118.8179 228° Southwest  Level FlightAware Approximate
22:37 39.5797 -119.0258 329° Northwest 375 432 18,600  Level Oakland Center
22:38 39.5264 -119.1311 237° Southwest 356 410 16,600 -1,980 Descending Oakland Center
22:39 39.4841 -119.1654 234° Southwest  Level FlightAware Approximate
22:39 39.4622 -119.2553 236° Southwest 349 402 14,600  Level Oakland Center
22:40 39.4108 -119.3553 236° Southwest 339 390 12,800 -1,740 Descending Oakland Center
22:41 39.3628 -119.4508 237° Southwest 327 376 11,100 -900 Descending Oakland Center
22:42 39.3342 -119.5450 249° West 302 348 11,000 -540 Descending Oakland Center
22:43 39.2947 -119.5921 329° Northwest  Level FlightAware Approximate
22:43 39.3133 -119.6228 251° West 261 300 10,100  Level Oakland Center
22:45 39.3042 -119.7594 265° West 215 247 9,000 -600 Descending Oakland Center
22:46 39.3569 -119.7769 346° North 217 250 8,300 -720 Descending Oakland Center